sensor_id;sensor_type;location;lat;lon;timestamp;temperature;humidity
21895;DHT22;11112;51.270;7.224;2023-03-01T00:01:45;4.30;88.10
21895;DHT22;11112;51.270;7.224;2023-03-01T00:04:13;4.30;87.60
21895;DHT22;11112;51.270;7.224;2023-03-01T00:06:43;4.30;87.70
21895;DHT22;11112;51.270;7.224;2023-03-01T00:09:11;4.30;87.90
21895;DHT22;11112;51.270;7.224;2023-03-01T00:11:40;4.30;87.60
21895;DHT22;11112;51.270;7.224;2023-03-01T00:14:10;4.20;88.00
21895;DHT22;11112;51.270;7.224;2023-03-01T00:16:38;4.30;88.00
21895;DHT22;11112;51.270;7.224;2023-03-01T00:19:17;4.20;87.60
21895;DHT22;11112;51.270;7.224;2023-03-01T00:21:47;4.30;88.00
21895;DHT22;11112;51.270;7.224;2023-03-01T00:24:18;4.20;87.80
21895;DHT22;11112;51.270;7.224;2023-03-01T00:26:45;4.20;87.50
21895;DHT22;11112;51.270;7.224;2023-03-01T00:29:14;4.20;87.70
21895;DHT22;11112;51.270;7.224;2023-03-01T00:31:41;4.10;87.80
21895;DHT22;11112;51.270;7.224;2023-03-01T00:34:12;4.00;87.80
21895;DHT22;11112;51.270;7.224;2023-03-01T00:36:40;4.10;88.20
21895;DHT22;11112;51.270;7.224;2023-03-01T00:39:12;4.00;88.10
21895;DHT22;11112;51.270;7.224;2023-03-01T00:41:40;4.00;88.20
21895;DHT22;11112;51.270;7.224;2023-03-01T00:44:08;4.10;88.40
21895;DHT22;11112;51.270;7.224;2023-03-01T00:46:38;4.10;88.30
21895;DHT22;11112;51.270;7.224;2023-03-01T00:49:06;4.10;88.20
21895;DHT22;11112;51.270;7.224;2023-03-01T00:51:33;4.10;88.20
21895;DHT22;11112;51.270;7.224;2023-03-01T00:54:02;4.00;87.80
21895;DHT22;11112;51.270;7.224;2023-03-01T00:56:30;4.00;88.10
21895;DHT22;11112;51.270;7.224;2023-03-01T00:58:58;4.00;88.10
21895;DHT22;11112;51.270;7.224;2023-03-01T01:01:28;4.00;88.00
21895;DHT22;11112;51.270;7.224;2023-03-01T01:03:59;4.00;88.40
21895;DHT22;11112;51.270;7.224;2023-03-01T01:06:32;4.00;88.10
21895;DHT22;11112;51.270;7.224;2023-03-01T01:09:01;4.00;87.90
21895;DHT22;11112;51.270;7.224;2023-03-01T01:11:30;4.00;88.60
21895;DHT22;11112;51.270;7.224;2023-03-01T01:13:58;4.00;88.00
21895;DHT22;11112;51.270;7.224;2023-03-01T01:16:27;4.00;87.80
21895;DHT22;11112;51.270;7.224;2023-03-01T01:18:57;3.90;88.10
21895;DHT22;11112;51.270;7.224;2023-03-01T01:21:25;3.90;87.90
21895;DHT22;11112;51.270;7.224;2023-03-01T01:23:56;3.90;88.00
21895;DHT22;11112;51.270;7.224;2023-03-01T01:26:31;3.90;88.90
21895;DHT22;11112;51.270;7.224;2023-03-01T01:29:03;3.90;88.40
21895;DHT22;11112;51.270;7.224;2023-03-01T01:31:35;3.90;87.90
21895;DHT22;11112;51.270;7.224;2023-03-01T01:34:07;3.90;88.30
21895;DHT22;11112;51.270;7.224;2023-03-01T01:36:35;3.80;87.80
21895;DHT22;11112;51.270;7.224;2023-03-01T01:39:03;3.80;88.00
21895;DHT22;11112;51.270;7.224;2023-03-01T01:41:33;3.80;88.20
21895;DHT22;11112;51.270;7.224;2023-03-01T01:44:19;3.80;88.20
21895;DHT22;11112;51.270;7.224;2023-03-01T01:46:51;3.80;89.20
21895;DHT22;11112;51.270;7.224;2023-03-01T01:49:27;3.70;87.90
21895;DHT22;11112;51.270;7.224;2023-03-01T01:52:07;3.80;88.90
21895;DHT22;11112;51.270;7.224;2023-03-01T01:54:46;3.80;88.30
21895;DHT22;11112;51.270;7.224;2023-03-01T01:57:23;3.80;87.80
21895;DHT22;11112;51.270;7.224;2023-03-01T01:59:55;3.70;87.90
21895;DHT22;11112;51.270;7.224;2023-03-01T02:02:26;3.70;87.90
21895;DHT22;11112;51.270;7.224;2023-03-01T02:05:03;3.70;87.70
21895;DHT22;11112;51.270;7.224;2023-03-01T02:07:37;3.60;88.10
21895;DHT22;11112;51.270;7.224;2023-03-01T02:10:10;3.60;88.00
21895;DHT22;11112;51.270;7.224;2023-03-01T02:12:38;3.70;87.70
21895;DHT22;11112;51.270;7.224;2023-03-01T02:15:07;3.60;87.70
21895;DHT22;11112;51.270;7.224;2023-03-01T02:17:36;3.60;87.70
21895;DHT22;11112;51.270;7.224;2023-03-01T02:20:14;3.60;87.30
21895;DHT22;11112;51.270;7.224;2023-03-01T02:22:46;3.50;87.90
21895;DHT22;11112;51.270;7.224;2023-03-01T02:25:27;3.50;88.00
21895;DHT22;11112;51.270;7.224;2023-03-01T02:28:08;3.50;88.10
21895;DHT22;11112;51.270;7.224;2023-03-01T02:30:40;3.60;88.50
21895;DHT22;11112;51.270;7.224;2023-03-01T02:33:29;3.60;88.40
21895;DHT22;11112;51.270;7.224;2023-03-01T02:35:59;3.60;88.40
21895;DHT22;11112;51.270;7.224;2023-03-01T02:38:28;3.60;88.40
21895;DHT22;11112;51.270;7.224;2023-03-01T02:41:00;3.60;88.10
21895;DHT22;11112;51.270;7.224;2023-03-01T02:43:34;3.60;88.20
21895;DHT22;11112;51.270;7.224;2023-03-01T02:46:08;3.50;87.90
21895;DHT22;11112;51.270;7.224;2023-03-01T02:48:45;3.50;87.50
21895;DHT22;11112;51.270;7.224;2023-03-01T02:51:25;3.40;87.70
21895;DHT22;11112;51.270;7.224;2023-03-01T02:54:08;3.40;87.90
21895;DHT22;11112;51.270;7.224;2023-03-01T02:56:40;3.40;87.40
21895;DHT22;11112;51.270;7.224;2023-03-01T02:59:14;3.40;87.70
21895;DHT22;11112;51.270;7.224;2023-03-01T03:01:48;3.40;87.60
21895;DHT22;11112;51.270;7.224;2023-03-01T03:04:18;3.40;87.90
21895;DHT22;11112;51.270;7.224;2023-03-01T03:06:49;3.40;87.40
21895;DHT22;11112;51.270;7.224;2023-03-01T03:09:18;3.40;87.10
21895;DHT22;11112;51.270;7.224;2023-03-01T03:11:46;3.40;87.60
21895;DHT22;11112;51.270;7.224;2023-03-01T03:14:18;3.40;87.40
21895;DHT22;11112;51.270;7.224;2023-03-01T03:16:48;3.30;87.30
21895;DHT22;11112;51.270;7.224;2023-03-01T03:19:17;3.30;87.90
21895;DHT22;11112;51.270;7.224;2023-03-01T03:21:44;3.30;87.20
21895;DHT22;11112;51.270;7.224;2023-03-01T03:24:13;3.30;87.60
21895;DHT22;11112;51.270;7.224;2023-03-01T03:26:44;3.30;87.90
21895;DHT22;11112;51.270;7.224;2023-03-01T03:29:11;3.30;87.50
21895;DHT22;11112;51.270;7.224;2023-03-01T03:31:39;3.30;87.80
21895;DHT22;11112;51.270;7.224;2023-03-01T03:34:08;3.30;88.10
21895;DHT22;11112;51.270;7.224;2023-03-01T03:36:43;3.30;88.40
21895;DHT22;11112;51.270;7.224;2023-03-01T03:39:10;3.30;88.40
21895;DHT22;11112;51.270;7.224;2023-03-01T03:41:40;3.30;87.90
21895;DHT22;11112;51.270;7.224;2023-03-01T03:44:08;3.30;88.20
21895;DHT22;11112;51.270;7.224;2023-03-01T03:46:37;3.30;88.10
21895;DHT22;11112;51.270;7.224;2023-03-01T03:49:04;3.30;88.00
21895;DHT22;11112;51.270;7.224;2023-03-01T03:51:33;3.30;88.20
21895;DHT22;11112;51.270;7.224;2023-03-01T03:54:00;3.30;88.10
21895;DHT22;11112;51.270;7.224;2023-03-01T03:56:28;3.30;88.00
21895;DHT22;11112;51.270;7.224;2023-03-01T03:58:55;3.30;88.10
21895;DHT22;11112;51.270;7.224;2023-03-01T04:01:23;3.30;88.60
21895;DHT22;11112;51.270;7.224;2023-03-01T04:03:50;3.30;89.10
21895;DHT22;11112;51.270;7.224;2023-03-01T04:06:19;3.40;89.40
21895;DHT22;11112;51.270;7.224;2023-03-01T04:08:51;3.40;89.50
21895;DHT22;11112;51.270;7.224;2023-03-01T04:11:23;3.40;88.30
21895;DHT22;11112;51.270;7.224;2023-03-01T04:13:54;3.40;88.20
21895;DHT22;11112;51.270;7.224;2023-03-01T04:16:22;3.30;88.30
21895;DHT22;11112;51.270;7.224;2023-03-01T04:18:51;3.30;87.50
21895;DHT22;11112;51.270;7.224;2023-03-01T04:21:19;3.30;87.90
21895;DHT22;11112;51.270;7.224;2023-03-01T04:23:48;3.30;88.10
21895;DHT22;11112;51.270;7.224;2023-03-01T04:26:19;3.20;87.70
21895;DHT22;11112;51.270;7.224;2023-03-01T04:28:47;3.30;87.90
21895;DHT22;11112;51.270;7.224;2023-03-01T04:31:18;3.30;88.00
21895;DHT22;11112;51.270;7.224;2023-03-01T04:33:48;3.20;87.40
21895;DHT22;11112;51.270;7.224;2023-03-01T04:36:18;3.20;88.00
21895;DHT22;11112;51.270;7.224;2023-03-01T04:38:51;3.10;87.80
21895;DHT22;11112;51.270;7.224;2023-03-01T04:41:20;3.10;87.80
21895;DHT22;11112;51.270;7.224;2023-03-01T04:43:49;3.20;88.30
21895;DHT22;11112;51.270;7.224;2023-03-01T04:46:20;3.20;88.70
21895;DHT22;11112;51.270;7.224;2023-03-01T04:48:52;3.20;87.70
21895;DHT22;11112;51.270;7.224;2023-03-01T04:51:20;3.20;87.80
21895;DHT22;11112;51.270;7.224;2023-03-01T04:53:50;3.20;87.90
21895;DHT22;11112;51.270;7.224;2023-03-01T04:56:17;3.20;87.70
21895;DHT22;11112;51.270;7.224;2023-03-01T04:58:45;3.10;87.60
21895;DHT22;11112;51.270;7.224;2023-03-01T05:01:16;3.10;87.90
21895;DHT22;11112;51.270;7.224;2023-03-01T05:03:48;3.10;88.00
21895;DHT22;11112;51.270;7.224;2023-03-01T05:06:19;3.10;88.60
21895;DHT22;11112;51.270;7.224;2023-03-01T05:08:48;3.00;88.40
21895;DHT22;11112;51.270;7.224;2023-03-01T05:11:17;3.00;88.30
21895;DHT22;11112;51.270;7.224;2023-03-01T05:13:45;3.00;88.10
21895;DHT22;11112;51.270;7.224;2023-03-01T05:16:20;3.00;88.40
21895;DHT22;11112;51.270;7.224;2023-03-01T05:18:47;3.00;88.30
21895;DHT22;11112;51.270;7.224;2023-03-01T05:21:17;3.00;88.40
21895;DHT22;11112;51.270;7.224;2023-03-01T05:23:49;3.00;88.50
21895;DHT22;11112;51.270;7.224;2023-03-01T05:26:18;3.00;88.50
21895;DHT22;11112;51.270;7.224;2023-03-01T05:28:47;3.00;88.70
21895;DHT22;11112;51.270;7.224;2023-03-01T05:31:14;3.10;88.60
21895;DHT22;11112;51.270;7.224;2023-03-01T05:33:44;3.10;89.00
21895;DHT22;11112;51.270;7.224;2023-03-01T05:36:12;3.00;88.50
21895;DHT22;11112;51.270;7.224;2023-03-01T05:38:39;3.00;88.50
21895;DHT22;11112;51.270;7.224;2023-03-01T05:41:14;3.10;88.60
21895;DHT22;11112;51.270;7.224;2023-03-01T05:43:42;3.00;88.30
21895;DHT22;11112;51.270;7.224;2023-03-01T05:46:10;3.00;88.30
21895;DHT22;11112;51.270;7.224;2023-03-01T05:48:38;3.00;88.20
21895;DHT22;11112;51.270;7.224;2023-03-01T05:51:05;3.00;88.00
21895;DHT22;11112;51.270;7.224;2023-03-01T05:53:33;3.00;88.20
21895;DHT22;11112;51.270;7.224;2023-03-01T05:58:48;3.00;88.00
21895;DHT22;11112;51.270;7.224;2023-03-01T06:01:18;3.00;88.10
21895;DHT22;11112;51.270;7.224;2023-03-01T06:03:47;3.00;88.30
21895;DHT22;11112;51.270;7.224;2023-03-01T06:06:15;2.90;87.80
21895;DHT22;11112;51.270;7.224;2023-03-01T06:09:03;2.90;88.50
21895;DHT22;11112;51.270;7.224;2023-03-01T06:11:36;2.90;88.40
21895;DHT22;11112;51.270;7.224;2023-03-01T06:14:07;3.00;88.30
21895;DHT22;11112;51.270;7.224;2023-03-01T06:16:36;3.00;88.30
21895;DHT22;11112;51.270;7.224;2023-03-01T06:19:03;2.90;88.30
21895;DHT22;11112;51.270;7.224;2023-03-01T06:21:31;2.90;88.60
21895;DHT22;11112;51.270;7.224;2023-03-01T06:23:59;2.90;88.70
21895;DHT22;11112;51.270;7.224;2023-03-01T06:26:28;2.90;88.40
21895;DHT22;11112;51.270;7.224;2023-03-01T06:28:57;3.00;89.10
21895;DHT22;11112;51.270;7.224;2023-03-01T06:31:26;3.00;89.00
21895;DHT22;11112;51.270;7.224;2023-03-01T06:33:55;3.00;88.60
21895;DHT22;11112;51.270;7.224;2023-03-01T06:36:23;3.00;89.10
21895;DHT22;11112;51.270;7.224;2023-03-01T06:38:50;3.00;88.60
21895;DHT22;11112;51.270;7.224;2023-03-01T06:41:19;3.00;88.60
21895;DHT22;11112;51.270;7.224;2023-03-01T06:43:50;3.00;88.30
21895;DHT22;11112;51.270;7.224;2023-03-01T06:46:19;3.00;88.10
21895;DHT22;11112;51.270;7.224;2023-03-01T06:48:47;3.00;88.10
21895;DHT22;11112;51.270;7.224;2023-03-01T06:51:15;3.00;88.30
21895;DHT22;11112;51.270;7.224;2023-03-01T06:53:45;3.00;88.30
21895;DHT22;11112;51.270;7.224;2023-03-01T06:56:13;3.00;88.00
21895;DHT22;11112;51.270;7.224;2023-03-01T06:58:42;3.00;88.30
21895;DHT22;11112;51.270;7.224;2023-03-01T07:01:10;3.00;88.40
21895;DHT22;11112;51.270;7.224;2023-03-01T07:03:39;3.00;88.00
21895;DHT22;11112;51.270;7.224;2023-03-01T07:06:10;3.00;88.30
21895;DHT22;11112;51.270;7.224;2023-03-01T07:08:38;3.00;88.40
21895;DHT22;11112;51.270;7.224;2023-03-01T07:11:07;3.00;88.40
21895;DHT22;11112;51.270;7.224;2023-03-01T07:13:35;3.00;88.50
21895;DHT22;11112;51.270;7.224;2023-03-01T07:16:04;3.10;88.80
21895;DHT22;11112;51.270;7.224;2023-03-01T07:18:32;3.10;89.00
21895;DHT22;11112;51.270;7.224;2023-03-01T07:21:06;3.00;89.40
21895;DHT22;11112;51.270;7.224;2023-03-01T07:23:35;3.10;89.40
21895;DHT22;11112;51.270;7.224;2023-03-01T07:26:02;3.10;89.70
21895;DHT22;11112;51.270;7.224;2023-03-01T07:28:30;3.10;90.00
21895;DHT22;11112;51.270;7.224;2023-03-01T07:31:01;3.10;89.70
21895;DHT22;11112;51.270;7.224;2023-03-01T07:33:29;3.10;90.10
21895;DHT22;11112;51.270;7.224;2023-03-01T07:35:59;3.10;90.00
21895;DHT22;11112;51.270;7.224;2023-03-01T07:38:29;3.10;90.00
21895;DHT22;11112;51.270;7.224;2023-03-01T07:40:59;3.00;89.30
21895;DHT22;11112;51.270;7.224;2023-03-01T07:43:27;3.00;89.30
21895;DHT22;11112;51.270;7.224;2023-03-01T07:45:58;3.10;89.60
21895;DHT22;11112;51.270;7.224;2023-03-01T07:48:27;3.20;90.10
21895;DHT22;11112;51.270;7.224;2023-03-01T07:50:58;3.20;90.00
21895;DHT22;11112;51.270;7.224;2023-03-01T07:53:26;3.20;90.00
21895;DHT22;11112;51.270;7.224;2023-03-01T07:56:02;3.30;90.10
21895;DHT22;11112;51.270;7.224;2023-03-01T07:58:31;3.30;89.50
21895;DHT22;11112;51.270;7.224;2023-03-01T08:01:01;3.30;90.00
21895;DHT22;11112;51.270;7.224;2023-03-01T08:03:29;3.30;89.70
21895;DHT22;11112;51.270;7.224;2023-03-01T08:05:59;3.30;89.70
21895;DHT22;11112;51.270;7.224;2023-03-01T08:08:30;3.30;90.10
21895;DHT22;11112;51.270;7.224;2023-03-01T08:11:06;3.40;90.00
21895;DHT22;11112;51.270;7.224;2023-03-01T08:13:35;3.40;89.60
21895;DHT22;11112;51.270;7.224;2023-03-01T08:16:05;3.40;89.60
21895;DHT22;11112;51.270;7.224;2023-03-01T08:18:37;3.50;90.00
21895;DHT22;11112;51.270;7.224;2023-03-01T08:21:07;3.50;90.20
21895;DHT22;11112;51.270;7.224;2023-03-01T08:23:36;3.60;90.20
21895;DHT22;11112;51.270;7.224;2023-03-01T08:26:09;3.60;89.40
21895;DHT22;11112;51.270;7.224;2023-03-01T08:28:38;3.50;88.80
21895;DHT22;11112;51.270;7.224;2023-03-01T08:31:14;3.50;88.90
21895;DHT22;11112;51.270;7.224;2023-03-01T08:33:43;3.50;88.50
21895;DHT22;11112;51.270;7.224;2023-03-01T08:36:16;3.50;88.40
21895;DHT22;11112;51.270;7.224;2023-03-01T08:38:45;3.50;88.30
21895;DHT22;11112;51.270;7.224;2023-03-01T08:41:14;3.60;88.80
21895;DHT22;11112;51.270;7.224;2023-03-01T08:43:42;3.60;88.30
21895;DHT22;11112;51.270;7.224;2023-03-01T08:46:10;3.70;88.50
21895;DHT22;11112;51.270;7.224;2023-03-01T08:50:07;3.70;87.80
21895;DHT22;11112;51.270;7.224;2023-03-01T08:52:16;3.70;88.10
21895;DHT22;11112;51.270;7.224;2023-03-01T08:55:33;3.70;87.80
21895;DHT22;11112;51.270;7.224;2023-03-01T08:58:04;3.80;88.50
21895;DHT22;11112;51.270;7.224;2023-03-01T09:00:31;3.80;87.90
21895;DHT22;11112;51.270;7.224;2023-03-01T09:03:00;3.90;88.30
21895;DHT22;11112;51.270;7.224;2023-03-01T09:05:28;4.00;88.80
21895;DHT22;11112;51.270;7.224;2023-03-01T09:07:57;4.10;87.90
21895;DHT22;11112;51.270;7.224;2023-03-01T09:10:26;4.10;88.10
21895;DHT22;11112;51.270;7.224;2023-03-01T09:12:54;4.20;87.90
21895;DHT22;11112;51.270;7.224;2023-03-01T09:15:24;4.30;87.10
21895;DHT22;11112;51.270;7.224;2023-03-01T09:17:51;4.30;86.20
21895;DHT22;11112;51.270;7.224;2023-03-01T09:20:18;4.40;86.70
21895;DHT22;11112;51.270;7.224;2023-03-01T09:22:46;4.50;86.90
21895;DHT22;11112;51.270;7.224;2023-03-01T09:25:14;4.50;84.90
21895;DHT22;11112;51.270;7.224;2023-03-01T09:27:41;4.50;85.10
21895;DHT22;11112;51.270;7.224;2023-03-01T09:30:10;4.60;84.10
21895;DHT22;11112;51.270;7.224;2023-03-01T09:32:40;4.60;85.00
21895;DHT22;11112;51.270;7.224;2023-03-01T09:35:08;4.70;84.50
21895;DHT22;11112;51.270;7.224;2023-03-01T09:37:39;4.70;83.70
21895;DHT22;11112;51.270;7.224;2023-03-01T09:40:14;4.80;84.10
21895;DHT22;11112;51.270;7.224;2023-03-01T09:42:51;4.80;84.20
21895;DHT22;11112;51.270;7.224;2023-03-01T09:45:28;4.90;83.60
21895;DHT22;11112;51.270;7.224;2023-03-01T09:48:00;4.90;82.20
21895;DHT22;11112;51.270;7.224;2023-03-01T09:50:33;4.80;82.10
21895;DHT22;11112;51.270;7.224;2023-03-01T09:53:05;4.80;82.90
21895;DHT22;11112;51.270;7.224;2023-03-01T09:55:37;4.90;83.40
21895;DHT22;11112;51.270;7.224;2023-03-01T10:01:27;5.00;82.70
21895;DHT22;11112;51.270;7.224;2023-03-01T10:04:26;5.10;83.70
21895;DHT22;11112;51.270;7.224;2023-03-01T10:07:14;5.10;82.80
21895;DHT22;11112;51.270;7.224;2023-03-01T10:10:06;5.10;81.30
21895;DHT22;11112;51.270;7.224;2023-03-01T10:13:10;5.10;82.20
21895;DHT22;11112;51.270;7.224;2023-03-01T10:16:09;5.10;81.50
21895;DHT22;11112;51.270;7.224;2023-03-01T10:18:47;5.10;81.50
21895;DHT22;11112;51.270;7.224;2023-03-01T10:21:41;5.00;79.80
21895;DHT22;11112;51.270;7.224;2023-03-01T10:24:13;5.00;80.50
21895;DHT22;11112;51.270;7.224;2023-03-01T10:26:48;5.00;80.70
21895;DHT22;11112;51.270;7.224;2023-03-01T10:29:42;5.00;80.70
21895;DHT22;11112;51.270;7.224;2023-03-01T10:32:41;5.00;80.20
21895;DHT22;11112;51.270;7.224;2023-03-01T10:35:49;5.00;80.40
21895;DHT22;11112;51.270;7.224;2023-03-01T10:38:18;5.10;80.70
21895;DHT22;11112;51.270;7.224;2023-03-01T10:40:53;5.10;80.00
21895;DHT22;11112;51.270;7.224;2023-03-01T10:43:23;5.10;79.40
21895;DHT22;11112;51.270;7.224;2023-03-01T10:45:54;5.10;79.70
21895;DHT22;11112;51.270;7.224;2023-03-01T10:48:23;5.00;80.30
21895;DHT22;11112;51.270;7.224;2023-03-01T10:51:05;5.10;81.60
21895;DHT22;11112;51.270;7.224;2023-03-01T10:53:36;5.20;80.00
21895;DHT22;11112;51.270;7.224;2023-03-01T10:56:07;5.20;80.10
21895;DHT22;11112;51.270;7.224;2023-03-01T10:58:38;5.20;78.40
21895;DHT22;11112;51.270;7.224;2023-03-01T11:01:27;5.20;79.20
21895;DHT22;11112;51.270;7.224;2023-03-01T11:04:12;5.30;80.50
21895;DHT22;11112;51.270;7.224;2023-03-01T11:06:43;5.30;81.40
21895;DHT22;11112;51.270;7.224;2023-03-01T11:09:31;5.30;80.80
21895;DHT22;11112;51.270;7.224;2023-03-01T11:12:11;5.40;81.00
21895;DHT22;11112;51.270;7.224;2023-03-01T11:14:47;5.40;81.00
21895;DHT22;11112;51.270;7.224;2023-03-01T11:17:18;5.50;80.20
21895;DHT22;11112;51.270;7.224;2023-03-01T11:19:59;5.50;80.80
21895;DHT22;11112;51.270;7.224;2023-03-01T11:22:56;5.50;79.80
21895;DHT22;11112;51.270;7.224;2023-03-01T11:25:43;5.60;79.70
21895;DHT22;11112;51.270;7.224;2023-03-01T11:28:18;5.60;80.00
21895;DHT22;11112;51.270;7.224;2023-03-01T11:30:50;5.60;79.80
21895;DHT22;11112;51.270;7.224;2023-03-01T11:37:14;5.70;79.00
21895;DHT22;11112;51.270;7.224;2023-03-01T11:40:26;5.70;78.30
21895;DHT22;11112;51.270;7.224;2023-03-01T11:43:22;5.70;77.50
21895;DHT22;11112;51.270;7.224;2023-03-01T11:47:03;5.60;78.10
21895;DHT22;11112;51.270;7.224;2023-03-01T11:50:05;5.60;76.90
21895;DHT22;11112;51.270;7.224;2023-03-01T11:52:48;5.70;78.00
21895;DHT22;11112;51.270;7.224;2023-03-01T11:55:58;5.80;78.40
21895;DHT22;11112;51.270;7.224;2023-03-01T11:58:45;5.80;77.40
21895;DHT22;11112;51.270;7.224;2023-03-01T12:01:37;5.80;76.70
21895;DHT22;11112;51.270;7.224;2023-03-01T12:04:36;5.80;76.60
21895;DHT22;11112;51.270;7.224;2023-03-01T12:07:26;5.80;76.00
21895;DHT22;11112;51.270;7.224;2023-03-01T12:10:14;5.80;76.00
21895;DHT22;11112;51.270;7.224;2023-03-01T12:13:17;5.80;77.10
21895;DHT22;11112;51.270;7.224;2023-03-01T12:16:15;5.80;76.70
21895;DHT22;11112;51.270;7.224;2023-03-01T12:19:05;5.70;77.10
21895;DHT22;11112;51.270;7.224;2023-03-01T12:21:55;5.80;76.40
21895;DHT22;11112;51.270;7.224;2023-03-01T12:24:45;5.70;76.80
21895;DHT22;11112;51.270;7.224;2023-03-01T12:27:38;5.80;77.20
21895;DHT22;11112;51.270;7.224;2023-03-01T12:30:39;5.80;76.40
21895;DHT22;11112;51.270;7.224;2023-03-01T12:33:21;5.80;76.60
21895;DHT22;11112;51.270;7.224;2023-03-01T12:36:11;5.80;77.30
21895;DHT22;11112;51.270;7.224;2023-03-01T12:38:50;5.80;78.30
21895;DHT22;11112;51.270;7.224;2023-03-01T12:41:35;5.80;77.80
21895;DHT22;11112;51.270;7.224;2023-03-01T12:44:24;5.80;78.30
21895;DHT22;11112;51.270;7.224;2023-03-01T12:47:20;5.80;79.30
21895;DHT22;11112;51.270;7.224;2023-03-01T12:49:59;5.90;78.60
21895;DHT22;11112;51.270;7.224;2023-03-01T12:52:35;5.90;79.00
21895;DHT22;11112;51.270;7.224;2023-03-01T12:55:15;5.80;79.00
21895;DHT22;11112;51.270;7.224;2023-03-01T12:57:55;5.70;79.40
21895;DHT22;11112;51.270;7.224;2023-03-01T13:00:31;5.80;79.60
21895;DHT22;11112;51.270;7.224;2023-03-01T13:03:18;5.80;79.70
21895;DHT22;11112;51.270;7.224;2023-03-01T13:06:06;5.80;80.60
21895;DHT22;11112;51.270;7.224;2023-03-01T13:08:40;5.80;81.00
21895;DHT22;11112;51.270;7.224;2023-03-01T13:11:20;5.90;81.10
21895;DHT22;11112;51.270;7.224;2023-03-01T13:13:49;5.90;81.10
21895;DHT22;11112;51.270;7.224;2023-03-01T13:19:13;5.80;81.20
21895;DHT22;11112;51.270;7.224;2023-03-01T13:21:48;5.90;81.70
21895;DHT22;11112;51.270;7.224;2023-03-01T13:24:26;5.90;80.80
21895;DHT22;11112;51.270;7.224;2023-03-01T13:27:23;5.80;80.70
21895;DHT22;11112;51.270;7.224;2023-03-01T13:29:56;5.80;81.10
21895;DHT22;11112;51.270;7.224;2023-03-01T13:32:29;5.80;81.60
21895;DHT22;11112;51.270;7.224;2023-03-01T13:34:59;5.80;80.60
21895;DHT22;11112;51.270;7.224;2023-03-01T13:37:36;5.80;80.30
21895;DHT22;11112;51.270;7.224;2023-03-01T13:43:28;5.80;80.40
21895;DHT22;11112;51.270;7.224;2023-03-01T13:45:59;5.80;79.70
21895;DHT22;11112;51.270;7.224;2023-03-01T13:48:29;5.90;80.30
21895;DHT22;11112;51.270;7.224;2023-03-01T13:51:02;5.90;80.70
21895;DHT22;11112;51.270;7.224;2023-03-01T13:53:35;5.90;80.10
21895;DHT22;11112;51.270;7.224;2023-03-01T13:56:08;5.80;79.60
21895;DHT22;11112;51.270;7.224;2023-03-01T13:58:58;5.90;80.50
21895;DHT22;11112;51.270;7.224;2023-03-01T14:01:28;6.00;80.30
21895;DHT22;11112;51.270;7.224;2023-03-01T14:03:58;5.90;79.20
21895;DHT22;11112;51.270;7.224;2023-03-01T14:06:27;5.90;78.40
21895;DHT22;11112;51.270;7.224;2023-03-01T14:09:09;5.90;78.30
21895;DHT22;11112;51.270;7.224;2023-03-01T14:12:12;5.90;77.80
21895;DHT22;11112;51.270;7.224;2023-03-01T14:14:56;5.90;78.30
21895;DHT22;11112;51.270;7.224;2023-03-01T14:17:36;5.90;78.20
21895;DHT22;11112;51.270;7.224;2023-03-01T14:20:20;6.00;78.60
21895;DHT22;11112;51.270;7.224;2023-03-01T14:22:50;6.00;78.90
21895;DHT22;11112;51.270;7.224;2023-03-01T14:25:24;6.10;78.20
21895;DHT22;11112;51.270;7.224;2023-03-01T14:27:58;6.00;77.80
21895;DHT22;11112;51.270;7.224;2023-03-01T14:30:33;6.00;76.90
21895;DHT22;11112;51.270;7.224;2023-03-01T14:33:06;6.10;77.00
21895;DHT22;11112;51.270;7.224;2023-03-01T14:35:53;6.10;76.70
21895;DHT22;11112;51.270;7.224;2023-03-01T14:38:33;6.10;76.50
21895;DHT22;11112;51.270;7.224;2023-03-01T14:41:05;6.10;75.90
21895;DHT22;11112;51.270;7.224;2023-03-01T14:43:33;6.10;75.00
21895;DHT22;11112;51.270;7.224;2023-03-01T14:46:02;6.10;74.60
21895;DHT22;11112;51.270;7.224;2023-03-01T14:48:31;6.10;75.00
21895;DHT22;11112;51.270;7.224;2023-03-01T14:50:59;6.10;76.20
21895;DHT22;11112;51.270;7.224;2023-03-01T14:53:28;6.10;76.10
21895;DHT22;11112;51.270;7.224;2023-03-01T14:56:02;6.10;75.90
21895;DHT22;11112;51.270;7.224;2023-03-01T14:58:32;6.10;74.20
21895;DHT22;11112;51.270;7.224;2023-03-01T15:01:02;6.10;73.90
21895;DHT22;11112;51.270;7.224;2023-03-01T15:03:33;6.00;73.80
21895;DHT22;11112;51.270;7.224;2023-03-01T15:06:04;6.00;74.40
21895;DHT22;11112;51.270;7.224;2023-03-01T15:08:33;6.00;74.40
21895;DHT22;11112;51.270;7.224;2023-03-01T15:11:05;6.00;75.10
21895;DHT22;11112;51.270;7.224;2023-03-01T15:13:44;6.00;75.30
21895;DHT22;11112;51.270;7.224;2023-03-01T15:16:14;6.00;75.60
21895;DHT22;11112;51.270;7.224;2023-03-01T15:18:44;6.00;75.50
21895;DHT22;11112;51.270;7.224;2023-03-01T15:21:18;6.00;75.60
21895;DHT22;11112;51.270;7.224;2023-03-01T15:23:50;6.10;75.20
21895;DHT22;11112;51.270;7.224;2023-03-01T15:26:26;6.00;75.70
21895;DHT22;11112;51.270;7.224;2023-03-01T15:28:58;6.10;75.40
21895;DHT22;11112;51.270;7.224;2023-03-01T15:31:28;6.10;75.50
21895;DHT22;11112;51.270;7.224;2023-03-01T15:34:19;6.10;75.80
21895;DHT22;11112;51.270;7.224;2023-03-01T15:36:54;6.10;75.00
21895;DHT22;11112;51.270;7.224;2023-03-01T15:39:36;6.10;74.50
21895;DHT22;11112;51.270;7.224;2023-03-01T15:42:10;6.10;75.00
21895;DHT22;11112;51.270;7.224;2023-03-01T15:44:40;6.10;74.20
21895;DHT22;11112;51.270;7.224;2023-03-01T15:47:25;6.10;74.20
21895;DHT22;11112;51.270;7.224;2023-03-01T15:49:55;6.10;74.70
21895;DHT22;11112;51.270;7.224;2023-03-01T15:52:26;6.10;74.30
21895;DHT22;11112;51.270;7.224;2023-03-01T15:54:58;6.10;74.30
21895;DHT22;11112;51.270;7.224;2023-03-01T15:57:27;6.10;73.90
21895;DHT22;11112;51.270;7.224;2023-03-01T15:59:55;6.10;74.30
21895;DHT22;11112;51.270;7.224;2023-03-01T16:02:24;6.10;74.40
21895;DHT22;11112;51.270;7.224;2023-03-01T16:04:51;6.00;74.70
21895;DHT22;11112;51.270;7.224;2023-03-01T16:07:19;6.10;75.60
21895;DHT22;11112;51.270;7.224;2023-03-01T16:09:49;6.10;75.40
21895;DHT22;11112;51.270;7.224;2023-03-01T16:12:17;6.10;74.90
21895;DHT22;11112;51.270;7.224;2023-03-01T16:14:48;6.10;75.10
21895;DHT22;11112;51.270;7.224;2023-03-01T16:17:15;6.10;75.30
21895;DHT22;11112;51.270;7.224;2023-03-01T16:19:43;6.10;74.70
21895;DHT22;11112;51.270;7.224;2023-03-01T16:22:11;6.10;74.70
21895;DHT22;11112;51.270;7.224;2023-03-01T16:24:52;6.10;74.70
21895;DHT22;11112;51.270;7.224;2023-03-01T16:27:22;6.10;74.30
21895;DHT22;11112;51.270;7.224;2023-03-01T16:29:56;6.10;73.80
21895;DHT22;11112;51.270;7.224;2023-03-01T16:32:23;6.10;73.90
21895;DHT22;11112;51.270;7.224;2023-03-01T16:34:51;6.10;73.60
21895;DHT22;11112;51.270;7.224;2023-03-01T16:37:19;6.10;73.50
21895;DHT22;11112;51.270;7.224;2023-03-01T16:39:47;6.10;73.90
21895;DHT22;11112;51.270;7.224;2023-03-01T16:42:17;6.10;73.40
21895;DHT22;11112;51.270;7.224;2023-03-01T16:44:44;6.00;73.20